Newbern, Tennessee
Current Conditions -  °F | °C
As of 10:35 AM on Friday 19 Dec 2014 (Local Time) from KDYR Reporting Station
Overcast Overcast  
Wind Chill: 30°   Ceiling: 4400
Heat Index: 37°   Visibility: 10mi
Dew Point: 21°   Wind: 10mph
Humidity: 52%   Direction: 60°ENE
Pressure: 30.3"   Gusts: NA
Location:  36.11°N, 89.26°W
Report Text: KDYR 191635Z 06009KT 10SM BKN044 OVC049 03/M06 A3030 RMK AO1
Loading
Personal Weather Stations






























Interactive Weather Map New forecast layout! Learn more

10-Day Weather Forecast

Advertisements
Track Severe Weather on mobile